Terminal Aerodrome Forecast
Issued by NWS North Platte, NE

Home | Current Version | Previous Version | Text Only | Print | Product List | Glossary Off
Versions: 1 2 3 4 5 6 7 8 9 10 11 12 13 14 15 16

143
FTUS43 KLBF 251720
TAFVTN
TAF
KVTN 251720Z 2518/2618 26014KT P6SM FEW035
     FM252200 26012G18KT P6SM BKN150
      TEMPO 2522/2524 30025G35KT 5SM -TSRA SQ BKN100CB
     FM260300 VRB05KT P6SM SCT250
     FM261500 12005KT P6SM SCT150=

USA.gov is the U.S. government's official web portal to all federal, state and local government web resources and services.